Time;durP1;ratioP1;P1;durP2;ratioP2;P2;SDS_P1;SDS_P2;PMS_P1;PMS_P2;Temp;Humidity;BMP_temperature;BMP_pressure;BME280_temperature;BME280_humidity;BME280_pressure;Samples;Min_cycle;Max_cycle;Signal;HPM_P1;HPM_P2
2022/12/21 00:01:20;;;;;;;91.50;34.38;;;6.20;99.90;;;;;;5056741;28;20511;-62
2022/12/21 00:03:50;;;;;;;178.30;53.85;;;6.20;99.90;;;;;;5073975;28;20055;-62
2022/12/21 00:06:15;;;;;;;212.82;65.05;;;6.20;99.90;;;;;;5056605;28;20040;-62
2022/12/21 00:08:44;;;;;;;165.85;48.83;;;6.10;99.90;;;;;;5056765;28;20090;-62
2022/12/21 00:11:11;;;;;;;54.22;26.88;;;6.10;99.90;;;;;;5073758;28;20393;-62
2022/12/21 00:13:37;;;;;;;154.60;43.67;;;6.10;99.90;;;;;;5056925;28;20040;-62
2022/12/21 00:16:09;;;;;;;134.35;39.33;;;6.00;99.90;;;;;;5056620;28;20128;-62
2022/12/21 00:18:36;;;;;;;111.50;39.78;;;6.00;99.90;;;;;;5056293;28;20048;-62
2022/12/21 00:21:14;;;;;;;68.93;25.92;;;6.00;99.90;;;;;;5074165;28;20490;-62
2022/12/21 00:23:41;;;;;;;180.70;48.33;;;5.90;99.90;;;;;;5056903;28;20051;-62
2022/12/21 00:26:08;;;;;;;40.90;23.00;;;5.90;99.90;;;;;;5055640;28;20053;-62
2022/12/21 00:28:34;;;;;;;113.10;34.13;;;5.90;99.90;;;;;;5056591;28;20058;-62
2022/12/21 00:31:11;;;;;;;45.47;20.70;;;5.80;99.90;;;;;;5056267;28;20043;-62
2022/12/21 00:33:38;;;;;;;197.80;50.42;;;5.80;99.90;;;;;;5056608;28;20477;-62
2022/12/21 00:36:06;;;;;;;124.78;35.13;;;5.80;99.90;;;;;;5055976;28;20036;-62
2022/12/21 00:38:34;;;;;;;37.17;19.80;;;5.80;99.90;;;;;;5073429;28;20032;-62
2022/12/21 00:41:02;;;;;;;75.63;26.75;;;5.70;99.90;;;;;;5056465;28;20084;-62
2022/12/21 00:43:28;;;;;;;32.03;17.77;;;5.70;99.90;;;;;;5056095;28;20485;-62
2022/12/21 00:45:54;;;;;;;52.90;19.35;;;5.70;99.90;;;;;;5073297;28;20036;-62
2022/12/21 00:48:20;;;;;;;31.67;17.98;;;5.70;99.90;;;;;;5073999;28;20093;-62
2022/12/21 00:50:47;;;;;;;36.38;16.88;;;5.60;99.90;;;;;;5055861;28;20504;-62
2022/12/21 00:53:15;;;;;;;54.45;23.10;;;5.60;99.90;;;;;;5055117;28;20040;-62
2022/12/21 00:55:41;;;;;;;37.53;17.98;;;5.60;99.90;;;;;;5056361;28;20381;-62
2022/12/21 00:58:07;;;;;;;65.80;29.15;;;5.50;99.90;;;;;;5073131;28;20036;-62
2022/12/21 01:00:33;;;;;;;47.63;22.60;;;5.50;99.90;;;;;;5073063;28;20041;-62
2022/12/21 01:02:58;;;;;;;28.83;18.00;;;5.40;99.90;;;;;;5055948;28;20367;-62
2022/12/21 01:05:24;;;;;;;44.38;22.80;;;5.40;99.90;;;;;;5055795;28;20481;-62
2022/12/21 01:07:50;;;;;;;36.17;21.17;;;5.40;99.90;;;;;;5072752;28;20097;-63
2022/12/21 01:10:15;;;;;;;28.45;16.35;;;5.40;99.90;;;;;;5073488;28;20541;-62
2022/12/21 01:12:41;;;;;;;32.10;18.95;;;5.40;99.90;;;;;;5039132;28;20477;-62
2022/12/21 01:15:07;;;;;;;33.97;18.60;;;5.40;99.90;;;;;;5072666;28;20129;-62
2022/12/21 01:17:34;;;;;;;32.67;17.95;;;5.30;99.90;;;;;;5055799;28;20367;-62
2022/12/21 01:20:00;;;;;;;26.90;15.25;;;5.30;99.90;;;;;;5055682;28;20611;-62
2022/12/21 01:22:25;;;;;;;32.58;18.98;;;5.30;99.90;;;;;;5054562;28;20050;-62
2022/12/21 01:24:51;;;;;;;35.95;17.48;;;5.30;99.90;;;;;;5072967;28;20155;-63
2022/12/21 01:27:17;;;;;;;40.75;19.67;;;5.20;99.90;;;;;;5073210;28;20098;-62
2022/12/21 01:29:42;;;;;;;27.98;16.85;;;5.20;99.90;;;;;;5054501;28;20049;-62
2022/12/21 01:32:08;;;;;;;42.08;19.55;;;5.20;99.90;;;;;;5055264;28;20041;-62
2022/12/21 01:34:33;;;;;;;43.38;19.58;;;5.20;99.90;;;;;;5054640;28;20045;-62
2022/12/21 01:36:59;;;;;;;46.22;19.98;;;5.10;99.90;;;;;;5054958;28;20040;-62
2022/12/21 01:39:25;;;;;;;38.92;20.05;;;5.10;99.90;;;;;;5072809;28;20044;-62
2022/12/21 01:41:50;;;;;;;37.13;19.17;;;5.00;99.90;;;;;;5054131;28;20414;-62
2022/12/21 01:44:47;;;;;;;43.10;20.80;;;5.00;99.90;;;;;;5054838;28;20045;-62
2022/12/21 01:47:18;;;;;;;77.47;29.40;;;5.00;99.90;;;;;;5054671;28;20040;-62
2022/12/21 01:49:50;;;;;;;48.58;20.17;;;5.00;99.90;;;;;;5071833;28;20428;-62
2022/12/21 01:52:16;;;;;;;96.85;26.90;;;4.90;99.90;;;;;;5072647;28;20040;-62
2022/12/21 01:54:52;;;;;;;92.97;27.83;;;4.90;99.90;;;;;;5072682;28;20035;-62
2022/12/21 01:57:18;;;;;;;93.50;28.88;;;4.90;99.90;;;;;;5053926;28;20079;-62
2022/12/21 01:59:55;;;;;;;71.78;22.92;;;4.80;99.90;;;;;;5072549;28;20072;-62
2022/12/21 02:02:25;;;;;;;52.88;18.60;;;4.80;99.90;;;;;;5054358;28;20044;-62
2022/12/21 02:04:52;;;;;;;50.53;17.90;;;4.80;99.90;;;;;;5053964;28;20036;-62
2022/12/21 02:07:21;;;;;;;51.83;19.13;;;4.70;99.90;;;;;;5054856;28;20094;-62
2022/12/21 02:09:47;;;;;;;56.08;19.40;;;4.70;99.90;;;;;;5037297;28;20457;-62
2022/12/21 02:12:15;;;;;;;81.68;26.92;;;4.60;99.90;;;;;;5054660;28;20394;-62
2022/12/21 02:14:43;;;;;;;49.03;18.75;;;4.60;99.90;;;;;;5054946;28;20063;-62
2022/12/21 02:17:30;;;;;;;68.97;22.17;;;4.60;99.90;;;;;;5053516;28;20037;-62
2022/12/21 02:20:37;;;;;;;57.25;19.60;;;4.60;99.90;;;;;;5037477;28;20040;-62
2022/12/21 02:23:18;;;;;;;;;;;4.50;99.90;;;;;;5072594;28;20123;-62
2022/12/21 02:26:16;;;;;;;52.10;16.23;;;4.50;99.90;;;;;;5071302;28;19920;-62
2022/12/21 02:28:50;;;;;;;38.08;15.95;;;4.50;99.90;;;;;;5054273;28;20385;-62
2022/12/21 02:31:26;;;;;;;58.05;18.55;;;4.50;99.90;;;;;;5053192;28;20044;-62
2022/12/21 02:34:07;;;;;;;68.35;22.35;;;4.50;99.90;;;;;;5072314;28;20116;-62
2022/12/21 02:36:54;;;;;;;54.88;17.27;;;4.40;99.90;;;;;;5072452;28;20037;-63
2022/12/21 02:39:33;;;;;;;65.55;21.13;;;4.40;99.90;;;;;;5053290;28;20044;-62
2022/12/21 02:45:30;;;;;;;42.35;17.38;;;4.30;99.90;;;;;;5071120;28;20200;-62
2022/12/21 02:48:05;;;;;;;156.25;32.95;;;4.30;99.90;;;;;;5054005;28;20497;-63
2022/12/21 02:50:35;;;;;;;96.25;28.65;;;4.30;99.90;;;;;;5054214;28;20043;-62
2022/12/21 02:53:07;;;;;;;32.75;14.65;;;4.30;99.90;;;;;;5071123;28;20037;-62
2022/12/21 02:55:33;;;;;;;89.03;25.77;;;4.30;99.90;;;;;;5054526;28;20044;-63
2022/12/21 02:58:22;;;;;;;59.28;19.35;;;4.30;99.90;;;;;;5071873;28;20470;-62
2022/12/21 03:01:05;;;;;;;50.17;17.50;;;4.30;99.90;;;;;;5071017;28;20478;-62
2022/12/21 03:03:54;;;;;;;46.35;16.65;;;4.30;99.90;;;;;;5072221;28;20037;-62
2022/12/21 03:07:13;;;;;;;44.17;16.23;;;4.30;99.90;;;;;;5070875;28;20481;-62
2022/12/21 03:09:50;;;;;;;62.00;21.77;;;4.30;99.90;;;;;;4954890;28;20053;-62
2022/12/21 03:12:53;;;;;;;43.78;16.33;;;4.30;99.90;;;;;;4970859;28;20100;-62
2022/12/21 03:15:35;;;;;;;56.85;19.58;;;4.30;99.90;;;;;;5049633;28;20715;-63
2022/12/21 03:18:28;;;;;;;44.42;13.95;;;4.20;99.90;;;;;;5071768;28;20036;-62
2022/12/21 03:21:13;;;;;;;106.63;28.67;;;4.30;99.90;;;;;;5054666;28;20444;-62
2022/12/21 03:23:46;;;;;;;39.05;14.07;;;4.30;99.90;;;;;;5076086;28;20047;-62
2022/12/21 03:26:35;;;;;;;38.45;14.98;;;4.20;99.90;;;;;;5057477;28;20067;-62
2022/12/21 03:29:02;;;;;;;49.25;17.33;;;4.20;99.90;;;;;;5056049;28;20052;-62
2022/12/21 03:31:33;;;;;;;31.33;13.73;;;4.30;99.90;;;;;;5075377;28;20375;-62
2022/12/21 03:34:23;;;;;;;48.67;18.35;;;4.30;99.90;;;;;;5075283;28;20119;-62
2022/12/21 03:36:58;;;;;;;46.55;17.27;;;4.30;99.90;;;;;;5075248;28;20489;-62
2022/12/21 03:39:27;;;;;;;61.70;17.17;;;4.30;99.90;;;;;;5075121;28;20188;-62
2022/12/21 03:42:11;;;;;;;47.42;16.08;;;4.30;99.90;;;;;;5039835;28;20127;-62
2022/12/21 03:44:42;;;;;;;91.65;25.00;;;4.30;99.90;;;;;;5040777;28;20052;-62
2022/12/21 03:47:14;;;;;;;58.38;17.77;;;4.30;99.90;;;;;;5040984;28;20084;-62
2022/12/21 03:49:51;;;;;;;79.32;20.00;;;4.40;99.90;;;;;;5074602;28;20536;-62
2022/12/21 03:52:20;;;;;;;46.75;16.92;;;4.30;99.90;;;;;;5057227;28;20032;-62
2022/12/21 03:55:00;;;;;;;60.85;18.52;;;4.30;99.90;;;;;;5074846;28;20040;-62
2022/12/21 03:57:27;;;;;;;43.83;15.35;;;4.40;99.90;;;;;;5074143;28;20037;-62
2022/12/21 03:59:56;;;;;;;57.28;17.95;;;4.30;99.90;;;;;;5040688;28;20424;-62
2022/12/21 04:02:32;;;;;;;68.57;18.55;;;4.30;99.90;;;;;;5056292;28;20561;-62
2022/12/21 04:05:25;;;;;;;56.92;19.25;;;4.40;99.90;;;;;;5074723;28;20032;-62
2022/12/21 04:07:53;;;;;;;46.45;16.10;;;4.40;99.90;;;;;;5056867;28;20055;-62
2022/12/21 04:10:20;;;;;;;57.13;15.43;;;4.40;99.90;;;;;;5073765;28;20048;-62
2022/12/21 04:12:46;;;;;;;65.10;18.67;;;4.40;99.90;;;;;;5056774;28;20040;-62
2022/12/21 04:15:24;;;;;;;58.20;17.83;;;4.40;99.90;;;;;;5074640;28;20040;-62
2022/12/21 04:17:52;;;;;;;94.03;24.25;;;4.40;99.90;;;;;;5039278;28;20492;-62
2022/12/21 04:20:23;;;;;;;68.75;16.75;;;4.40;99.90;;;;;;5074437;28;20040;-62
2022/12/21 04:28:25;;;;;;;38.95;14.25;;;4.40;99.90;;;;;;5074484;28;20048;-62
2022/12/21 04:30:51;;;;;;;69.15;20.70;;;4.50;99.90;;;;;;5073546;28;20123;-62
2022/12/21 04:33:20;;;;;;;47.08;16.98;;;4.40;99.90;;;;;;5055229;28;20111;-62
2022/12/21 04:38:34;;;;;;;80.43;22.27;;;4.40;99.90;;;;;;5055584;28;20050;-62
2022/12/21 04:40:59;;;;;;;43.97;16.52;;;4.40;99.90;;;;;;5056256;28;20049;-62
2022/12/21 04:43:26;;;;;;;34.22;12.63;;;4.40;99.90;;;;;;5056111;28;20050;-62
2022/12/21 04:46:03;;;;;;;41.90;14.77;;;4.40;99.90;;;;;;5073292;28;20045;-62
2022/12/21 04:48:29;;;;;;;44.42;16.00;;;4.50;99.90;;;;;;5056320;28;20078;-62
2022/12/21 04:50:56;;;;;;;51.63;17.65;;;4.40;99.90;;;;;;5056120;28;20378;-62
2022/12/21 04:53:22;;;;;;;68.43;21.33;;;4.50;99.90;;;;;;5073261;28;20047;-63
2022/12/21 04:55:48;;;;;;;163.77;36.13;;;4.50;99.90;;;;;;5056102;28;20044;-62
2022/12/21 04:58:13;;;;;;;80.80;25.75;;;4.50;99.90;;;;;;5055906;28;20546;-63
2022/12/21 05:00:39;;;;;;;36.42;14.35;;;4.50;99.90;;;;;;5038664;28;20041;-63
2022/12/21 05:03:06;;;;;;;63.00;21.65;;;4.50;99.90;;;;;;5073459;28;20046;-62
2022/12/21 05:05:31;;;;;;;56.63;20.63;;;4.50;99.90;;;;;;5055306;28;20389;-62
2022/12/21 05:07:57;;;;;;;40.50;15.60;;;4.50;99.90;;;;;;5073605;28;20032;-62
2022/12/21 05:10:23;;;;;;;68.80;22.42;;;4.60;99.90;;;;;;5038986;28;20044;-62
2022/12/21 05:12:48;;;;;;;39.70;15.52;;;4.60;99.90;;;;;;5054857;28;20033;-62
2022/12/21 05:15:16;;;;;;;42.92;15.75;;;4.60;99.90;;;;;;5073424;28;20072;-62
2022/12/21 05:17:42;;;;;;;106.15;25.95;;;4.60;99.90;;;;;;5073440;28;20086;-62
2022/12/21 05:20:08;;;;;;;42.45;15.15;;;4.60;99.90;;;;;;5054767;28;20481;-63
2022/12/21 05:22:34;;;;;;;134.15;30.02;;;4.70;99.90;;;;;;5055730;28;20046;-63
2022/12/21 05:25:00;;;;;;;58.83;22.10;;;4.70;99.90;;;;;;5055114;28;20141;-62
2022/12/21 05:27:25;;;;;;;54.40;21.33;;;4.60;99.90;;;;;;5054306;28;20044;-63
2022/12/21 05:29:51;;;;;;;43.47;16.52;;;4.60;99.90;;;;;;5055564;28;20049;-62
2022/12/21 05:32:17;;;;;;;70.15;22.92;;;4.70;99.90;;;;;;5073126;28;20533;-62
2022/12/21 05:34:42;;;;;;;64.50;21.75;;;4.70;99.90;;;;;;5054430;28;20490;-62
2022/12/21 05:37:08;;;;;;;106.40;28.40;;;4.60;99.90;;;;;;5073002;28;20033;-62
2022/12/21 05:39:34;;;;;;;66.50;23.95;;;4.70;99.90;;;;;;5073202;28;20055;-62
2022/12/21 05:42:01;;;;;;;51.35;17.42;;;4.70;99.90;;;;;;5072180;28;20512;-62
2022/12/21 05:44:27;;;;;;;84.63;24.63;;;4.60;99.90;;;;;;5054876;28;20101;-62
2022/12/21 05:46:53;;;;;;;64.10;22.40;;;4.70;99.90;;;;;;5072756;28;20516;-62
2022/12/21 05:49:19;;;;;;;139.20;31.45;;;4.70;99.90;;;;;;5071794;28;20502;-62
2022/12/21 05:51:49;;;;;;;70.10;20.60;;;4.60;99.90;;;;;;5072746;28;20121;-62
2022/12/21 05:54:18;;;;;;;65.35;21.95;;;4.60;99.90;;;;;;5038285;28;20125;-63
2022/12/21 05:56:43;;;;;;;110.97;27.88;;;4.60;99.90;;;;;;5071839;28;20505;-62
2022/12/21 05:59:09;;;;;;;117.00;31.15;;;4.60;99.90;;;;;;5072489;28;20086;-63
2022/12/21 06:01:35;;;;;;;35.40;15.68;;;4.60;99.90;;;;;;5054800;28;20064;-62
2022/12/21 06:04:02;;;;;;;135.68;32.75;;;4.60;99.90;;;;;;5071560;28;20051;-62
2022/12/21 06:06:27;;;;;;;77.70;20.88;;;4.60;99.90;;;;;;5054768;28;20047;-63
2022/12/21 06:08:53;;;;;;;91.90;24.60;;;4.60;99.90;;;;;;5053775;28;20485;-63
2022/12/21 06:11:22;;;;;;;116.85;31.40;;;4.60;99.90;;;;;;5054402;28;20119;-62
2022/12/21 06:13:48;;;;;;;115.13;29.35;;;4.60;99.90;;;;;;5054570;28;20040;-62
2022/12/21 06:16:23;;;;;;;82.75;25.15;;;4.60;99.90;;;;;;5053424;28;20544;-62
2022/12/21 06:18:49;;;;;;;72.82;23.55;;;4.60;99.90;;;;;;5072455;28;20076;-62
2022/12/21 06:21:16;;;;;;;46.38;17.63;;;4.60;99.90;;;;;;5072129;28;20087;-62
2022/12/21 06:23:42;;;;;;;83.03;23.58;;;4.60;99.90;;;;;;5071685;28;20474;-62
2022/12/21 06:26:12;;;;;;;39.13;17.13;;;4.50;99.90;;;;;;5054160;28;20140;-62
2022/12/21 06:28:38;;;;;;;91.82;25.20;;;4.60;99.90;;;;;;5072240;28;20036;-62
2022/12/21 06:31:11;;;;;;;77.50;25.10;;;4.60;99.90;;;;;;5053361;28;20400;-62
2022/12/21 06:33:37;;;;;;;41.08;17.10;;;4.60;99.90;;;;;;5072602;28;20075;-62
2022/12/21 06:36:04;;;;;;;61.95;22.33;;;4.60;99.90;;;;;;5071952;28;20379;-62
2022/12/21 06:38:31;;;;;;;149.68;40.78;;;4.60;99.90;;;;;;5052040;28;20047;-62
2022/12/21 06:40:59;;;;;;;40.75;17.48;;;4.60;99.90;;;;;;5069829;28;20572;-62
2022/12/21 06:43:26;;;;;;;40.28;18.30;;;4.60;99.90;;;;;;5055113;28;20101;-62
2022/12/21 06:45:56;;;;;;;44.13;19.17;;;4.60;99.90;;;;;;5053209;28;20504;-62
2022/12/21 06:48:23;;;;;;;41.65;18.52;;;4.60;99.90;;;;;;5070234;28;20043;-62
2022/12/21 06:51:00;;;;;;;77.20;21.95;;;4.70;99.90;;;;;;5065081;28;20044;-62
2022/12/21 06:53:29;;;;;;;47.63;19.38;;;4.60;99.90;;;;;;5071587;28;20538;-62
2022/12/21 06:56:03;;;;;;;55.33;22.52;;;4.60;99.90;;;;;;5071389;28;20041;-62
2022/12/21 06:58:30;;;;;;;117.70;33.85;;;4.70;99.90;;;;;;5055222;28;20051;-62
2022/12/21 07:00:56;;;;;;;83.55;26.52;;;4.70;99.90;;;;;;5032683;28;20041;-62
2022/12/21 07:03:22;;;;;;;47.75;18.88;;;4.70;99.90;;;;;;5065900;28;20044;-62
2022/12/21 07:05:49;;;;;;;60.03;23.65;;;4.70;99.90;;;;;;5033976;28;20045;-62
2022/12/21 07:08:16;;;;;;;49.88;21.45;;;4.70;99.90;;;;;;5034893;28;20048;-62
2022/12/21 07:10:42;;;;;;;50.42;22.05;;;4.70;99.90;;;;;;5052120;28;20037;-62
2022/12/21 07:13:07;;;;;;;27.38;16.35;;;4.70;99.90;;;;;;5060156;28;20507;-62
2022/12/21 07:15:34;;;;;;;54.25;21.23;;;4.70;99.90;;;;;;5068138;28;20033;-62
2022/12/21 07:18:00;;;;;;;39.17;19.52;;;4.70;99.90;;;;;;5069173;28;20141;-62
2022/12/21 07:20:26;;;;;;;42.25;19.42;;;4.70;99.90;;;;;;5068785;28;20714;-62
2022/12/21 07:22:52;;;;;;;46.97;22.02;;;4.70;99.90;;;;;;5063600;28;20699;-61
2022/12/21 07:25:18;;;;;;;37.15;18.27;;;4.80;99.90;;;;;;5030907;28;20053;-62
2022/12/21 07:27:43;;;;;;;42.85;19.48;;;4.80;99.90;;;;;;5048595;28;20474;-62
2022/12/21 07:30:10;;;;;;;55.42;23.08;;;4.80;99.90;;;;;;5031139;28;20469;-62
2022/12/21 07:32:35;;;;;;;62.45;24.08;;;4.80;99.90;;;;;;5031461;28;20120;-62
2022/12/21 07:35:01;;;;;;;62.67;23.42;;;4.80;99.90;;;;;;5034473;28;20119;-62
2022/12/21 07:37:27;;;;;;;33.88;17.80;;;4.80;99.90;;;;;;5070234;28;20051;-62
2022/12/21 07:39:52;;;;;;;39.00;18.88;;;4.80;99.90;;;;;;5049562;28;20116;-62
2022/12/21 07:42:18;;;;;;;49.58;21.40;;;4.90;99.90;;;;;;5050384;28;20112;-62
2022/12/21 07:44:44;;;;;;;73.53;27.00;;;4.90;99.90;;;;;;5069301;28;20036;-62
2022/12/21 07:47:09;;;;;;;89.82;31.98;;;4.90;99.90;;;;;;5032935;28;20516;-62
2022/12/21 07:49:35;;;;;;;65.18;26.15;;;4.90;99.90;;;;;;5064801;28;20386;-62
2022/12/21 07:52:01;;;;;;;54.10;22.13;;;4.90;99.90;;;;;;5049921;28;20049;-62
2022/12/21 07:54:27;;;;;;;134.82;41.38;;;4.90;99.90;;;;;;5067616;28;20044;-62
2022/12/21 07:56:52;;;;;;;111.68;32.92;;;4.90;99.90;;;;;;5067656;28;20040;-62
2022/12/21 07:59:18;;;;;;;59.90;23.90;;;4.90;99.90;;;;;;5066906;28;20131;-62
2022/12/21 08:01:44;;;;;;;40.67;20.83;;;4.90;99.90;;;;;;5065341;28;20139;-62
2022/12/21 08:04:10;;;;;;;64.25;26.85;;;5.00;99.90;;;;;;5066798;28;20044;-62
2022/12/21 08:06:36;;;;;;;53.08;22.58;;;5.00;99.90;;;;;;5054581;28;20045;-62
2022/12/21 08:09:03;;;;;;;87.15;29.20;;;5.00;99.90;;;;;;5037917;28;20454;-62
2022/12/21 08:11:29;;;;;;;49.80;22.83;;;5.00;99.90;;;;;;5051305;28;20053;-63
2022/12/21 08:13:56;;;;;;;70.45;27.48;;;5.10;99.90;;;;;;5055728;28;20556;-62
2022/12/21 08:16:22;;;;;;;59.72;24.30;;;5.10;99.90;;;;;;5053897;28;20124;-62
2022/12/21 08:18:48;;;;;;;93.30;29.80;;;5.10;99.90;;;;;;5054484;28;20053;-62
2022/12/21 08:21:15;;;;;;;98.50;31.73;;;5.10;99.90;;;;;;5057941;28;20049;-62
2022/12/21 08:23:41;;;;;;;78.90;31.27;;;5.10;99.90;;;;;;5071903;28;20039;-62
2022/12/21 08:26:10;;;;;;;75.00;28.10;;;5.10;99.90;;;;;;5071308;28;20134;-62
2022/12/21 08:28:36;;;;;;;69.53;26.67;;;5.10;99.90;;;;;;5071604;28;20049;-61
2022/12/21 08:31:05;;;;;;;65.30;27.10;;;5.10;99.90;;;;;;5037222;28;20043;-62
2022/12/21 08:33:31;;;;;;;64.78;25.80;;;5.10;99.90;;;;;;5055727;28;20086;-62
2022/12/21 08:35:56;;;;;;;63.17;28.00;;;5.10;99.90;;;;;;5069304;28;20052;-62
2022/12/21 08:38:22;;;;;;;83.95;35.55;;;5.20;99.90;;;;;;5066638;28;20489;-61
2022/12/21 08:40:48;;;;;;;43.25;23.30;;;5.20;99.90;;;;;;5069869;28;20444;-63
2022/12/21 08:43:14;;;;;;;50.58;23.02;;;5.30;99.90;;;;;;5039471;28;20032;-62
2022/12/21 08:45:40;;;;;;;27.05;15.88;;;5.30;99.90;;;;;;5055777;28;20047;-63
2022/12/21 08:48:06;;;;;;;123.38;41.90;;;5.30;99.90;;;;;;5062644;28;20041;-62
2022/12/21 08:50:31;;;;;;;72.57;34.15;;;5.40;99.90;;;;;;5059459;28;20532;-62
2022/12/21 08:52:57;;;;;;;60.15;29.40;;;5.50;99.90;;;;;;5072787;28;20060;-61
2022/12/21 08:55:23;;;;;;;34.88;20.17;;;5.50;99.90;;;;;;5074289;28;20076;-62
2022/12/21 08:57:49;;;;;;;35.28;18.15;;;5.50;99.90;;;;;;5073357;28;20115;-62
2022/12/21 09:00:14;;;;;;;50.92;23.98;;;5.50;99.90;;;;;;5070474;28;20094;-62
2022/12/21 09:02:40;;;;;;;63.33;25.65;;;5.60;99.90;;;;;;5056880;28;20045;-62
2022/12/21 09:05:06;;;;;;;42.70;20.48;;;5.60;99.90;;;;;;5055116;28;20055;-61
2022/12/21 09:07:32;;;;;;;39.95;21.17;;;5.70;99.90;;;;;;5073360;28;20116;-61
2022/12/21 09:09:58;;;;;;;45.03;24.58;;;5.70;99.90;;;;;;5055409;28;20047;-62
2022/12/21 09:12:24;;;;;;;54.00;23.95;;;5.70;99.90;;;;;;5066941;28;20037;-62
2022/12/21 09:14:50;;;;;;;45.90;23.35;;;5.70;99.90;;;;;;5049946;28;20029;-61
2022/12/21 09:17:15;;;;;;;43.60;21.48;;;5.70;99.90;;;;;;5067125;28;20478;-61
2022/12/21 09:19:41;;;;;;;45.28;23.92;;;5.80;99.90;;;;;;5055955;28;20047;-62
2022/12/21 09:22:08;;;;;;;47.13;24.45;;;5.80;99.90;;;;;;5063641;28;20045;-62
2022/12/21 09:24:34;;;;;;;55.85;27.17;;;5.80;99.90;;;;;;5043048;28;20068;-62
2022/12/21 09:26:59;;;;;;;46.83;24.67;;;5.80;99.90;;;;;;5071029;28;20087;-62
2022/12/21 09:29:25;;;;;;;45.55;22.58;;;5.80;99.90;;;;;;5055111;28;20044;-61
2022/12/21 09:31:52;;;;;;;54.15;26.90;;;5.80;99.90;;;;;;5072286;28;20493;-62
2022/12/21 09:34:18;;;;;;;57.50;26.90;;;5.80;99.90;;;;;;5071545;28;20097;-62
2022/12/21 09:36:44;;;;;;;50.25;24.20;;;5.80;99.90;;;;;;5073082;28;20541;-62
2022/12/21 09:39:10;;;;;;;52.28;24.48;;;5.90;99.90;;;;;;5071981;28;20119;-62
2022/12/21 09:41:50;;;;;;;58.65;26.40;;;5.80;99.90;;;;;;5070529;28;20436;-62
2022/12/21 09:44:40;;;;;;;54.88;28.85;;;5.80;99.90;;;;;;5072039;28;20047;-62
2022/12/21 09:47:14;;;;;;;57.45;28.48;;;5.80;99.90;;;;;;5052346;28;20041;-62
2022/12/21 09:49:44;;;;;;;64.88;30.95;;;5.80;99.90;;;;;;5048462;28;20045;-62
2022/12/21 09:52:21;;;;;;;61.47;30.02;;;5.90;99.90;;;;;;5072922;28;20040;-62
2022/12/21 09:55:16;;;;;;;55.85;29.77;;;5.90;99.90;;;;;;5071808;28;20040;-62
2022/12/21 09:57:43;;;;;;;72.78;35.28;;;5.90;99.90;;;;;;5066691;28;20520;-61
2022/12/21 10:00:18;;;;;;;81.70;38.55;;;5.90;99.90;;;;;;5072630;28;20050;-62
2022/12/21 10:02:58;;;;;;;70.63;31.15;;;5.90;99.90;;;;;;5068737;28;20028;-62
2022/12/21 10:05:36;;;;;;;65.28;30.48;;;6.00;99.90;;;;;;5044404;28;20048;-62
2022/12/21 10:08:33;;;;;;;58.25;26.38;;;6.00;99.90;;;;;;5066452;28;20934;-61
2022/12/21 10:11:08;;;;;;;57.05;28.25;;;6.00;99.90;;;;;;5045689;28;20134;-62
2022/12/21 10:14:01;;;;;;;58.85;27.75;;;6.00;99.90;;;;;;5054146;28;20036;-61
2022/12/21 10:16:46;;;;;;;51.80;26.73;;;6.10;99.90;;;;;;5070770;28;20392;-62
2022/12/21 10:19:35;;;;;;;60.00;29.38;;;6.10;99.90;;;;;;5017498;28;20621;-62
2022/12/21 10:22:13;;;;;;;59.72;29.63;;;6.20;99.90;;;;;;5071031;28;20036;-62
2022/12/21 10:24:49;;;;;;;65.03;32.53;;;6.10;99.90;;;;;;5055184;28;20041;-62
2022/12/21 10:27:34;;;;;;;69.40;31.45;;;6.20;99.90;;;;;;5071617;28;20101;-62
2022/12/21 10:30:00;;;;;;;62.58;31.60;;;6.20;99.90;;;;;;5069984;28;20055;-62
2022/12/21 10:32:32;;;;;;;69.22;31.73;;;6.20;99.90;;;;;;5050157;28;20033;-62
2022/12/21 10:35:14;;;;;;;66.57;32.00;;;6.20;99.90;;;;;;5054208;28;20051;-62
2022/12/21 10:37:40;;;;;;;56.72;29.05;;;6.20;99.90;;;;;;5053683;28;20040;-62
2022/12/21 10:40:06;;;;;;;72.10;33.72;;;6.20;99.90;;;;;;5054793;28;20045;-62
2022/12/21 10:42:43;;;;;;;68.82;34.45;;;6.30;99.90;;;;;;5053576;28;20036;-62
2022/12/21 10:45:16;;;;;;;53.25;30.92;;;6.30;99.90;;;;;;5069810;28;20048;-62
2022/12/21 10:47:44;;;;;;;64.20;31.08;;;6.30;99.90;;;;;;5042344;28;20044;-61
2022/12/21 10:50:23;;;;;;;58.17;30.67;;;6.30;99.90;;;;;;5053163;28;20437;-62
2022/12/21 10:52:55;;;;;;;54.42;29.02;;;6.40;99.90;;;;;;5053527;28;20401;-62
2022/12/21 10:55:31;;;;;;;67.38;30.55;;;6.40;99.90;;;;;;5071864;28;20520;-62
2022/12/21 10:58:17;;;;;;;61.67;33.28;;;6.40;99.90;;;;;;5071195;28;20039;-62
2022/12/21 11:00:58;;;;;;;63.50;32.58;;;6.40;99.90;;;;;;5072209;28;20131;-62
2022/12/21 11:03:36;;;;;;;59.35;31.42;;;6.50;99.90;;;;;;5054156;28;20044;-62
2022/12/21 11:06:16;;;;;;;62.80;32.08;;;6.60;99.90;;;;;;5052011;28;20045;-62
2022/12/21 11:08:49;;;;;;;66.80;34.03;;;6.60;99.90;;;;;;5053995;28;20560;-62
2022/12/21 11:11:31;;;;;;;69.40;36.30;;;6.50;99.90;;;;;;5070945;28;20044;-62
2022/12/21 11:14:19;;;;;;;61.95;30.15;;;6.60;99.90;;;;;;5056813;28;20036;-62
2022/12/21 11:16:45;;;;;;;54.42;28.73;;;6.60;99.90;;;;;;5070353;28;20059;-62
2022/12/21 11:19:13;;;;;;;50.38;26.67;;;6.60;99.90;;;;;;5068181;28;20032;-62
2022/12/21 11:21:54;;;;;;;50.72;25.92;;;6.60;99.90;;;;;;5037358;28;20060;-62
2022/12/21 11:24:33;;;;;;;48.63;26.15;;;6.70;99.90;;;;;;5054302;28;20083;-62
2022/12/21 11:27:03;;;;;;;45.05;24.25;;;6.60;99.90;;;;;;5070410;28;20387;-62
2022/12/21 11:29:37;;;;;;;48.47;26.17;;;6.70;99.90;;;;;;5053702;28;20052;-61
2022/12/21 11:32:08;;;;;;;46.30;23.60;;;6.70;99.90;;;;;;5070267;28;20132;-62
2022/12/21 11:34:57;;;;;;;41.80;21.88;;;6.80;99.90;;;;;;5052152;28;20064;-62
2022/12/21 11:37:31;;;;;;;42.15;22.67;;;6.70;99.90;;;;;;5071000;28;20482;-62
2022/12/21 11:40:06;;;;;;;44.30;22.50;;;6.80;99.90;;;;;;5060830;28;20116;-62
2022/12/21 11:42:32;;;;;;;;;;;6.80;99.90;;;;;;5056989;28;20550;-62
2022/12/21 11:45:25;;;;;;;39.90;19.85;;;6.80;99.90;;;;;;5071628;28;19917;-62
2022/12/21 11:48:15;;;;;;;40.75;20.75;;;6.90;99.90;;;;;;5068514;28;20512;-62
2022/12/21 11:50:59;;;;;;;36.50;20.05;;;6.90;99.90;;;;;;5071088;28;20051;-62
2022/12/21 11:54:04;;;;;;;39.40;18.60;;;6.90;99.90;;;;;;5058622;28;20123;-62
2022/12/21 11:56:50;;;;;;;33.60;17.70;;;7.00;99.90;;;;;;5034580;28;20045;-62
2022/12/21 11:59:43;;;;;;;32.63;17.83;;;7.10;99.90;;;;;;5073802;28;20120;-62
2022/12/21 12:02:27;;;;;;;42.85;20.92;;;7.20;99.90;;;;;;5073910;28;20123;-62
2022/12/21 12:05:23;;;;;;;35.55;17.27;;;7.20;99.90;;;;;;5070715;28;20038;-61
2022/12/21 12:08:18;;;;;;;37.28;17.40;;;7.30;99.90;;;;;;5074128;28;20041;-61
2022/12/21 12:11:14;;;;;;;30.75;15.60;;;7.30;99.90;;;;;;5041793;28;20051;-61
2022/12/21 12:13:51;;;;;;;35.70;18.10;;;7.40;99.90;;;;;;5071627;28;20032;-62
2022/12/21 12:16:26;;;;;;;32.92;16.73;;;7.40;99.90;;;;;;5055709;28;20028;-61
2022/12/21 12:19:12;;;;;;;33.75;18.20;;;7.50;99.90;;;;;;5063454;28;20045;-62
2022/12/21 12:21:56;;;;;;;35.72;18.02;;;7.50;99.90;;;;;;5074351;28;20036;-62
2022/12/21 12:24:43;;;;;;;43.90;22.27;;;7.50;99.90;;;;;;5073337;28;20052;-62
2022/12/21 12:27:44;;;;;;;37.92;19.42;;;7.50;99.90;;;;;;5073337;28;20060;-62
2022/12/21 12:30:12;;;;;;;36.47;18.27;;;7.60;99.90;;;;;;5055627;28;20045;-62
2022/12/21 12:33:11;;;;;;;37.85;19.15;;;7.60;99.90;;;;;;5073756;28;20041;-62
2022/12/21 12:35:55;;;;;;;39.75;19.00;;;7.60;99.90;;;;;;5074362;28;20455;-62
2022/12/21 12:38:26;;;;;;;31.63;18.95;;;7.60;99.90;;;;;;5072774;28;20492;-62
2022/12/21 12:41:25;;;;;;;33.85;19.40;;;7.60;99.90;;;;;;5074296;28;20425;-62
2022/12/21 12:43:56;;;;;;;39.35;18.85;;;7.60;99.90;;;;;;5072332;28;20067;-62
2022/12/21 12:46:40;;;;;;;34.88;18.45;;;7.70;99.90;;;;;;5056138;28;20049;-62
2022/12/21 12:49:29;;;;;;;31.80;18.73;;;7.70;99.90;;;;;;5072695;28;20123;-62
2022/12/21 12:52:27;;;;;;;33.92;20.27;;;7.70;99.90;;;;;;5058609;28;20139;-62
2022/12/21 12:55:28;;;;;;;37.75;21.23;;;7.70;99.90;;;;;;5055298;28;20047;-62
2022/12/21 12:58:11;;;;;;;34.45;19.35;;;7.70;99.90;;;;;;5071865;28;20048;-62
2022/12/21 13:01:03;;;;;;;34.95;20.20;;;7.80;99.90;;;;;;5072866;28;20123;-62
2022/12/21 13:03:54;;;;;;;39.35;21.98;;;7.70;99.90;;;;;;5056068;28;20509;-62
2022/12/21 13:06:47;;;;;;;36.55;21.00;;;7.60;99.90;;;;;;5072448;28;20127;-62
2022/12/21 13:09:18;;;;;;;36.08;21.42;;;7.60;99.90;;;;;;5073691;28;20048;-62
2022/12/21 13:11:50;;;;;;;38.00;25.42;;;7.50;99.90;;;;;;5071596;28;20516;-62
2022/12/21 13:14:26;;;;;;;40.05;24.40;;;7.50;99.90;;;;;;5072450;28;20094;-62